Terminal Aerodrome Forecast
Issued by NWS Tiyan, Guam

Home | Current Version | Previous Version | Text Only | Print | Product List | Glossary On
Versions: 1 2 3 4 5 6 7 8 9 10 11 12 13 14 15 16 17 18 19 20 21 22 23 24
000
FTPQ31 PGUM 192300 RRA
TAFPQ
TAF
PGUM 192343Z 2000/2106 13007KT P6SM VCSH FEW018 SCT040
     FM200200 13011G18KT P6SM VCSH FEW018 SCT040
     FM200800 13009KT P6SM VCSH FEW018 SCT040=

USA.gov is the U.S. government's official web portal to all federal, state and local government web resources and services.